sensor_id;sensor_type;location;lat;lon;timestamp;temperature;humidity
70867;HTU21D;58487;53.474;49.470;2023-06-14T00:02:10;12.25;118.99
70867;HTU21D;58487;53.474;49.470;2023-06-14T00:04:36;12.31;118.99
70867;HTU21D;58487;53.474;49.470;2023-06-14T00:07:05;12.51;118.99
70867;HTU21D;58487;53.474;49.470;2023-06-14T00:09:34;13.14;118.99
70867;HTU21D;58487;53.474;49.470;2023-06-14T00:12:00;12.60;118.99
70867;HTU21D;58487;53.474;49.470;2023-06-14T00:14:27;12.74;118.99
70867;HTU21D;58487;53.474;49.470;2023-06-14T00:16:53;12.69;118.99
70867;HTU21D;58487;53.474;49.470;2023-06-14T00:19:26;12.74;118.99
70867;HTU21D;58487;53.474;49.470;2023-06-14T00:21:52;11.88;118.99
70867;HTU21D;58487;53.474;49.470;2023-06-14T00:24:19;11.72;118.99
70867;HTU21D;58487;53.474;49.470;2023-06-14T00:26:45;12.01;118.99
70867;HTU21D;58487;53.474;49.470;2023-06-14T00:29:11;11.81;118.99
70867;HTU21D;58487;53.474;49.470;2023-06-14T00:31:38;12.04;118.99
70867;HTU21D;58487;53.474;49.470;2023-06-14T00:34:04;12.03;118.99
70867;HTU21D;58487;53.474;49.470;2023-06-14T00:36:30;11.63;118.99
70867;HTU21D;58487;53.474;49.470;2023-06-14T00:38:56;11.43;118.99
70867;HTU21D;58487;53.474;49.470;2023-06-14T00:41:22;11.76;118.99
70867;HTU21D;58487;53.474;49.470;2023-06-14T00:43:49;11.88;118.99
70867;HTU21D;58487;53.474;49.470;2023-06-14T00:46:15;12.06;118.99
70867;HTU21D;58487;53.474;49.470;2023-06-14T00:48:42;11.86;118.99
70867;HTU21D;58487;53.474;49.470;2023-06-14T00:51:08;11.98;118.99
70867;HTU21D;58487;53.474;49.470;2023-06-14T00:53:34;11.87;118.99
70867;HTU21D;58487;53.474;49.470;2023-06-14T00:56:02;11.48;118.99
70867;HTU21D;58487;53.474;49.470;2023-06-14T00:58:29;11.33;118.99
70867;HTU21D;58487;53.474;49.470;2023-06-14T01:00:55;11.44;118.99
70867;HTU21D;58487;53.474;49.470;2023-06-14T01:03:22;11.15;118.99
70867;HTU21D;58487;53.474;49.470;2023-06-14T01:05:56;11.54;118.99
70867;HTU21D;58487;53.474;49.470;2023-06-14T01:11:31;11.28;118.99
70867;HTU21D;58487;53.474;49.470;2023-06-14T01:14:00;11.24;118.99
70867;HTU21D;58487;53.474;49.470;2023-06-14T01:16:29;11.08;118.99
70867;HTU21D;58487;53.474;49.470;2023-06-14T01:18:55;11.02;118.99
70867;HTU21D;58487;53.474;49.470;2023-06-14T01:21:23;10.82;118.99
70867;HTU21D;58487;53.474;49.470;2023-06-14T01:23:54;10.98;118.99
70867;HTU21D;58487;53.474;49.470;2023-06-14T01:26:21;10.94;118.99
70867;HTU21D;58487;53.474;49.470;2023-06-14T01:28:49;10.86;118.99
70867;HTU21D;58487;53.474;49.470;2023-06-14T01:31:20;10.89;118.99
70867;HTU21D;58487;53.474;49.470;2023-06-14T01:33:49;10.99;118.99
70867;HTU21D;58487;53.474;49.470;2023-06-14T01:36:18;10.87;118.99
70867;HTU21D;58487;53.474;49.470;2023-06-14T01:38:46;10.75;118.99
70867;HTU21D;58487;53.474;49.470;2023-06-14T01:41:14;11.11;118.99
70867;HTU21D;58487;53.474;49.470;2023-06-14T01:43:41;10.88;118.99
70867;HTU21D;58487;53.474;49.470;2023-06-14T01:46:09;10.79;118.99
70867;HTU21D;58487;53.474;49.470;2023-06-14T01:48:36;11.16;118.99
70867;HTU21D;58487;53.474;49.470;2023-06-14T01:51:02;10.95;118.99
70867;HTU21D;58487;53.474;49.470;2023-06-14T01:53:28;11.09;118.99
70867;HTU21D;58487;53.474;49.470;2023-06-14T01:55:54;10.83;118.99
70867;HTU21D;58487;53.474;49.470;2023-06-14T01:58:21;10.74;118.99
70867;HTU21D;58487;53.474;49.470;2023-06-14T02:00:47;10.40;118.99
70867;HTU21D;58487;53.474;49.470;2023-06-14T02:03:13;10.56;118.99
70867;HTU21D;58487;53.474;49.470;2023-06-14T02:05:41;10.55;118.99
70867;HTU21D;58487;53.474;49.470;2023-06-14T02:08:07;10.37;118.99
70867;HTU21D;58487;53.474;49.470;2023-06-14T02:10:33;10.34;118.99
70867;HTU21D;58487;53.474;49.470;2023-06-14T02:13:00;10.41;118.99
70867;HTU21D;58487;53.474;49.470;2023-06-14T02:15:26;10.56;118.99
70867;HTU21D;58487;53.474;49.470;2023-06-14T02:18:03;10.63;118.99
70867;HTU21D;58487;53.474;49.470;2023-06-14T02:20:29;10.60;118.99
70867;HTU21D;58487;53.474;49.470;2023-06-14T02:22:56;10.82;118.99
70867;HTU21D;58487;53.474;49.470;2023-06-14T02:25:23;10.80;118.99
70867;HTU21D;58487;53.474;49.470;2023-06-14T02:27:49;10.58;118.99
70867;HTU21D;58487;53.474;49.470;2023-06-14T02:30:15;11.52;118.99
70867;HTU21D;58487;53.474;49.470;2023-06-14T02:32:42;11.12;118.99
70867;HTU21D;58487;53.474;49.470;2023-06-14T02:35:08;11.54;118.99
70867;HTU21D;58487;53.474;49.470;2023-06-14T02:37:35;11.61;118.99
70867;HTU21D;58487;53.474;49.470;2023-06-14T02:40:01;11.61;118.99
70867;HTU21D;58487;53.474;49.470;2023-06-14T02:42:28;11.67;118.99
70867;HTU21D;58487;53.474;49.470;2023-06-14T02:44:54;11.41;118.99
70867;HTU21D;58487;53.474;49.470;2023-06-14T02:47:20;11.44;118.99
70867;HTU21D;58487;53.474;49.470;2023-06-14T02:49:46;11.09;118.99
70867;HTU21D;58487;53.474;49.470;2023-06-14T02:52:13;11.34;118.99
70867;HTU21D;58487;53.474;49.470;2023-06-14T02:54:39;11.66;118.99
70867;HTU21D;58487;53.474;49.470;2023-06-14T02:57:06;11.68;118.99
70867;HTU21D;58487;53.474;49.470;2023-06-14T02:59:34;11.49;118.99
70867;HTU21D;58487;53.474;49.470;2023-06-14T03:02:01;11.33;118.99
70867;HTU21D;58487;53.474;49.470;2023-06-14T03:04:27;11.41;118.99
70867;HTU21D;58487;53.474;49.470;2023-06-14T03:06:54;11.53;118.99
70867;HTU21D;58487;53.474;49.470;2023-06-14T03:09:21;11.31;118.99
70867;HTU21D;58487;53.474;49.470;2023-06-14T03:11:47;11.44;118.99
70867;HTU21D;58487;53.474;49.470;2023-06-14T03:14:14;11.53;118.99
70867;HTU21D;58487;53.474;49.470;2023-06-14T03:16:40;11.28;118.99
70867;HTU21D;58487;53.474;49.470;2023-06-14T03:19:07;11.02;118.99
70867;HTU21D;58487;53.474;49.470;2023-06-14T03:21:33;11.42;118.99
70867;HTU21D;58487;53.474;49.470;2023-06-14T03:24:00;11.40;118.99
70867;HTU21D;58487;53.474;49.470;2023-06-14T03:26:29;11.60;118.99
70867;HTU21D;58487;53.474;49.470;2023-06-14T03:28:57;12.04;118.99
70867;HTU21D;58487;53.474;49.470;2023-06-14T03:31:23;12.13;118.99
70867;HTU21D;58487;53.474;49.470;2023-06-14T03:33:49;12.18;118.99
70867;HTU21D;58487;53.474;49.470;2023-06-14T03:36:15;11.94;118.99
70867;HTU21D;58487;53.474;49.470;2023-06-14T03:38:43;12.50;118.99
70867;HTU21D;58487;53.474;49.470;2023-06-14T03:41:09;12.51;118.99
70867;HTU21D;58487;53.474;49.470;2023-06-14T03:43:36;12.37;118.99
70867;HTU21D;58487;53.474;49.470;2023-06-14T03:46:02;12.16;118.99
70867;HTU21D;58487;53.474;49.470;2023-06-14T03:48:28;12.14;118.99
70867;HTU21D;58487;53.474;49.470;2023-06-14T03:50:54;11.83;118.99
70867;HTU21D;58487;53.474;49.470;2023-06-14T03:53:21;11.47;118.99
70867;HTU21D;58487;53.474;49.470;2023-06-14T03:55:50;12.90;118.99
70867;HTU21D;58487;53.474;49.470;2023-06-14T03:58:18;12.92;118.99
70867;HTU21D;58487;53.474;49.470;2023-06-14T04:00:45;12.42;118.99
70867;HTU21D;58487;53.474;49.470;2023-06-14T04:03:11;12.07;118.99
70867;HTU21D;58487;53.474;49.470;2023-06-14T04:05:39;12.63;118.99
70867;HTU21D;58487;53.474;49.470;2023-06-14T04:08:08;12.41;118.99
70867;HTU21D;58487;53.474;49.470;2023-06-14T04:10:35;12.42;118.99
70867;HTU21D;58487;53.474;49.470;2023-06-14T04:13:02;12.63;118.99
70867;HTU21D;58487;53.474;49.470;2023-06-14T04:15:28;12.44;118.99
70867;HTU21D;58487;53.474;49.470;2023-06-14T04:17:54;11.77;118.99
70867;HTU21D;58487;53.474;49.470;2023-06-14T04:20:23;10.80;118.99
70867;HTU21D;58487;53.474;49.470;2023-06-14T04:22:52;11.17;118.99
70867;HTU21D;58487;53.474;49.470;2023-06-14T04:25:19;12.04;118.99
70867;HTU21D;58487;53.474;49.470;2023-06-14T04:27:46;12.16;118.99
70867;HTU21D;58487;53.474;49.470;2023-06-14T04:30:13;12.17;118.99
70867;HTU21D;58487;53.474;49.470;2023-06-14T04:32:39;11.51;118.99
70867;HTU21D;58487;53.474;49.470;2023-06-14T04:35:07;11.61;118.99
70867;HTU21D;58487;53.474;49.470;2023-06-14T04:37:33;11.76;118.99
70867;HTU21D;58487;53.474;49.470;2023-06-14T04:40:00;11.04;118.99
70867;HTU21D;58487;53.474;49.470;2023-06-14T04:42:26;11.08;118.99
70867;HTU21D;58487;53.474;49.470;2023-06-14T04:44:57;11.73;118.99
70867;HTU21D;58487;53.474;49.470;2023-06-14T04:47:23;11.64;118.99
70867;HTU21D;58487;53.474;49.470;2023-06-14T04:49:56;11.41;118.99
70867;HTU21D;58487;53.474;49.470;2023-06-14T04:52:24;11.55;118.99
70867;HTU21D;58487;53.474;49.470;2023-06-14T04:54:52;11.23;118.99
70867;HTU21D;58487;53.474;49.470;2023-06-14T04:57:21;11.85;118.99
70867;HTU21D;58487;53.474;49.470;2023-06-14T04:59:48;11.55;118.99
70867;HTU21D;58487;53.474;49.470;2023-06-14T05:02:24;12.10;118.99
70867;HTU21D;58487;53.474;49.470;2023-06-14T05:04:51;12.29;118.99
70867;HTU21D;58487;53.474;49.470;2023-06-14T05:07:18;12.27;118.99
70867;HTU21D;58487;53.474;49.470;2023-06-14T05:09:45;11.15;118.99
70867;HTU21D;58487;53.474;49.470;2023-06-14T05:12:11;11.11;118.99
70867;HTU21D;58487;53.474;49.470;2023-06-14T05:14:38;10.99;118.99
70867;HTU21D;58487;53.474;49.470;2023-06-14T05:17:05;11.03;118.99
70867;HTU21D;58487;53.474;49.470;2023-06-14T05:19:31;11.02;118.99
70867;HTU21D;58487;53.474;49.470;2023-06-14T05:21:58;11.69;118.99
70867;HTU21D;58487;53.474;49.470;2023-06-14T05:24:24;12.11;118.99
70867;HTU21D;58487;53.474;49.470;2023-06-14T05:26:50;11.44;118.99
70867;HTU21D;58487;53.474;49.470;2023-06-14T05:29:16;11.70;118.99
70867;HTU21D;58487;53.474;49.470;2023-06-14T05:31:43;11.91;118.99
70867;HTU21D;58487;53.474;49.470;2023-06-14T05:34:09;11.68;118.99
70867;HTU21D;58487;53.474;49.470;2023-06-14T05:36:35;12.41;118.99
70867;HTU21D;58487;53.474;49.470;2023-06-14T05:39:02;12.43;118.99
70867;HTU21D;58487;53.474;49.470;2023-06-14T05:41:30;12.40;118.99
70867;HTU21D;58487;53.474;49.470;2023-06-14T05:43:57;12.53;118.99
70867;HTU21D;58487;53.474;49.470;2023-06-14T05:46:23;12.99;118.99
70867;HTU21D;58487;53.474;49.470;2023-06-14T05:48:55;12.73;118.99
70867;HTU21D;58487;53.474;49.470;2023-06-14T05:51:22;12.81;118.99
70867;HTU21D;58487;53.474;49.470;2023-06-14T05:53:51;12.86;118.99
70867;HTU21D;58487;53.474;49.470;2023-06-14T05:56:17;12.95;118.99
70867;HTU21D;58487;53.474;49.470;2023-06-14T05:58:44;12.76;118.99
70867;HTU21D;58487;53.474;49.470;2023-06-14T06:01:11;12.31;118.99
70867;HTU21D;58487;53.474;49.470;2023-06-14T06:03:37;12.64;118.99
70867;HTU21D;58487;53.474;49.470;2023-06-14T06:06:03;13.11;118.99
70867;HTU21D;58487;53.474;49.470;2023-06-14T06:08:29;13.38;118.99
70867;HTU21D;58487;53.474;49.470;2023-06-14T06:10:57;13.38;118.99
70867;HTU21D;58487;53.474;49.470;2023-06-14T06:13:23;13.80;118.99
70867;HTU21D;58487;53.474;49.470;2023-06-14T06:15:49;13.92;118.99
70867;HTU21D;58487;53.474;49.470;2023-06-14T06:18:17;13.83;118.99
70867;HTU21D;58487;53.474;49.470;2023-06-14T06:20:43;13.67;118.99
70867;HTU21D;58487;53.474;49.470;2023-06-14T06:23:10;13.90;118.99
70867;HTU21D;58487;53.474;49.470;2023-06-14T06:25:36;13.51;118.99
70867;HTU21D;58487;53.474;49.470;2023-06-14T06:28:03;13.70;118.99
70867;HTU21D;58487;53.474;49.470;2023-06-14T06:30:29;13.96;118.99
70867;HTU21D;58487;53.474;49.470;2023-06-14T06:32:55;13.45;118.99
70867;HTU21D;58487;53.474;49.470;2023-06-14T06:35:21;14.25;118.99
70867;HTU21D;58487;53.474;49.470;2023-06-14T06:37:48;14.60;118.99
70867;HTU21D;58487;53.474;49.470;2023-06-14T06:40:14;14.24;118.99
70867;HTU21D;58487;53.474;49.470;2023-06-14T06:42:41;13.99;118.99
70867;HTU21D;58487;53.474;49.470;2023-06-14T06:45:07;14.10;118.99
70867;HTU21D;58487;53.474;49.470;2023-06-14T06:47:34;14.55;118.99
70867;HTU21D;58487;53.474;49.470;2023-06-14T06:50:00;14.56;118.99
70867;HTU21D;58487;53.474;49.470;2023-06-14T06:52:26;14.84;118.99
70867;HTU21D;58487;53.474;49.470;2023-06-14T06:54:52;14.94;118.99
70867;HTU21D;58487;53.474;49.470;2023-06-14T06:57:21;14.98;118.99
70867;HTU21D;58487;53.474;49.470;2023-06-14T06:59:49;15.52;118.99
70867;HTU21D;58487;53.474;49.470;2023-06-14T07:02:16;15.10;118.99
70867;HTU21D;58487;53.474;49.470;2023-06-14T07:04:42;14.86;118.99
70867;HTU21D;58487;53.474;49.470;2023-06-14T07:07:08;15.61;118.99
70867;HTU21D;58487;53.474;49.470;2023-06-14T07:09:38;15.98;118.99
70867;HTU21D;58487;53.474;49.470;2023-06-14T07:12:04;15.91;118.99
70867;HTU21D;58487;53.474;49.470;2023-06-14T07:14:31;15.81;118.99
70867;HTU21D;58487;53.474;49.470;2023-06-14T07:16:57;15.25;118.99
70867;HTU21D;58487;53.474;49.470;2023-06-14T07:19:23;15.23;118.99
70867;HTU21D;58487;53.474;49.470;2023-06-14T07:21:49;14.91;118.99
70867;HTU21D;58487;53.474;49.470;2023-06-14T07:24:16;14.93;118.99
70867;HTU21D;58487;53.474;49.470;2023-06-14T07:26:42;14.98;118.99
70867;HTU21D;58487;53.474;49.470;2023-06-14T07:29:08;15.16;118.99
70867;HTU21D;58487;53.474;49.470;2023-06-14T07:31:34;15.43;118.99
70867;HTU21D;58487;53.474;49.470;2023-06-14T07:34:01;15.73;118.99
70867;HTU21D;58487;53.474;49.470;2023-06-14T07:36:27;15.34;118.99
70867;HTU21D;58487;53.474;49.470;2023-06-14T07:38:53;15.06;118.99
70867;HTU21D;58487;53.474;49.470;2023-06-14T07:41:19;15.54;118.99
70867;HTU21D;58487;53.474;49.470;2023-06-14T07:43:46;15.52;118.99
70867;HTU21D;58487;53.474;49.470;2023-06-14T07:46:12;15.71;118.99
70867;HTU21D;58487;53.474;49.470;2023-06-14T07:48:38;15.66;118.99
70867;HTU21D;58487;53.474;49.470;2023-06-14T07:51:05;15.00;118.99
70867;HTU21D;58487;53.474;49.470;2023-06-14T07:53:31;14.95;118.99
70867;HTU21D;58487;53.474;49.470;2023-06-14T07:55:57;14.83;118.99
70867;HTU21D;58487;53.474;49.470;2023-06-14T07:58:24;15.00;118.99
70867;HTU21D;58487;53.474;49.470;2023-06-14T08:00:50;15.21;118.99
70867;HTU21D;58487;53.474;49.470;2023-06-14T08:03:17;15.26;118.99
70867;HTU21D;58487;53.474;49.470;2023-06-14T08:05:44;15.75;118.99
70867;HTU21D;58487;53.474;49.470;2023-06-14T08:08:10;15.73;118.99
70867;HTU21D;58487;53.474;49.470;2023-06-14T08:10:36;15.32;118.99
70867;HTU21D;58487;53.474;49.470;2023-06-14T08:13:02;15.18;118.99
70867;HTU21D;58487;53.474;49.470;2023-06-14T08:15:29;15.18;118.99
70867;HTU21D;58487;53.474;49.470;2023-06-14T08:17:55;15.31;118.99
70867;HTU21D;58487;53.474;49.470;2023-06-14T08:20:22;15.90;118.99
70867;HTU21D;58487;53.474;49.470;2023-06-14T08:22:48;15.95;118.99
70867;HTU21D;58487;53.474;49.470;2023-06-14T08:25:14;15.97;118.99
70867;HTU21D;58487;53.474;49.470;2023-06-14T08:27:40;16.10;118.99
70867;HTU21D;58487;53.474;49.470;2023-06-14T08:30:07;16.01;118.99
70867;HTU21D;58487;53.474;49.470;2023-06-14T08:32:34;16.25;118.99
70867;HTU21D;58487;53.474;49.470;2023-06-14T08:35:00;16.18;118.99
70867;HTU21D;58487;53.474;49.470;2023-06-14T08:37:26;16.16;118.99
70867;HTU21D;58487;53.474;49.470;2023-06-14T08:39:53;16.20;118.99
70867;HTU21D;58487;53.474;49.470;2023-06-14T08:42:21;16.20;118.99
70867;HTU21D;58487;53.474;49.470;2023-06-14T08:44:47;16.52;118.99
70867;HTU21D;58487;53.474;49.470;2023-06-14T08:47:14;16.76;118.99
70867;HTU21D;58487;53.474;49.470;2023-06-14T08:49:45;16.80;118.99
70867;HTU21D;58487;53.474;49.470;2023-06-14T08:52:13;16.70;118.99
70867;HTU21D;58487;53.474;49.470;2023-06-14T08:54:44;17.02;118.99
70867;HTU21D;58487;53.474;49.470;2023-06-14T08:57:11;16.48;118.99
70867;HTU21D;58487;53.474;49.470;2023-06-14T08:59:46;16.70;118.99
70867;HTU21D;58487;53.474;49.470;2023-06-14T09:02:15;17.00;118.99
70867;HTU21D;58487;53.474;49.470;2023-06-14T09:04:44;16.93;118.99
70867;HTU21D;58487;53.474;49.470;2023-06-14T09:07:11;16.94;118.99
70867;HTU21D;58487;53.474;49.470;2023-06-14T09:09:39;16.76;118.99
70867;HTU21D;58487;53.474;49.470;2023-06-14T09:12:08;16.73;118.99
70867;HTU21D;58487;53.474;49.470;2023-06-14T09:14:36;16.63;118.99
70867;HTU21D;58487;53.474;49.470;2023-06-14T09:17:06;16.60;118.99
70867;HTU21D;58487;53.474;49.470;2023-06-14T09:19:33;16.54;118.99
70867;HTU21D;58487;53.474;49.470;2023-06-14T09:22:01;16.40;118.99
70867;HTU21D;58487;53.474;49.470;2023-06-14T09:24:27;16.21;118.99
70867;HTU21D;58487;53.474;49.470;2023-06-14T09:26:53;16.05;118.99
70867;HTU21D;58487;53.474;49.470;2023-06-14T09:29:19;15.92;118.99
70867;HTU21D;58487;53.474;49.470;2023-06-14T09:31:47;15.83;118.99
70867;HTU21D;58487;53.474;49.470;2023-06-14T09:34:13;15.63;118.99
70867;HTU21D;58487;53.474;49.470;2023-06-14T09:36:42;15.84;118.99
70867;HTU21D;58487;53.474;49.470;2023-06-14T09:39:08;15.69;118.99
70867;HTU21D;58487;53.474;49.470;2023-06-14T09:41:39;15.55;118.99
70867;HTU21D;58487;53.474;49.470;2023-06-14T09:44:07;15.38;118.99
70867;HTU21D;58487;53.474;49.470;2023-06-14T09:46:36;15.26;118.99
70867;HTU21D;58487;53.474;49.470;2023-06-14T09:49:05;15.77;118.99
70867;HTU21D;58487;53.474;49.470;2023-06-14T09:51:31;15.46;118.99
70867;HTU21D;58487;53.474;49.470;2023-06-14T09:54:02;15.68;118.99
70867;HTU21D;58487;53.474;49.470;2023-06-14T09:56:35;15.73;118.99
70867;HTU21D;58487;53.474;49.470;2023-06-14T09:59:05;15.40;118.99
70867;HTU21D;58487;53.474;49.470;2023-06-14T10:01:32;15.06;118.99
70867;HTU21D;58487;53.474;49.470;2023-06-14T10:04:05;14.99;118.99
70867;HTU21D;58487;53.474;49.470;2023-06-14T10:06:36;14.91;118.99
70867;HTU21D;58487;53.474;49.470;2023-06-14T10:09:04;14.75;118.99
70867;HTU21D;58487;53.474;49.470;2023-06-14T10:11:32;15.36;118.99
70867;HTU21D;58487;53.474;49.470;2023-06-14T10:14:02;15.26;118.99
70867;HTU21D;58487;53.474;49.470;2023-06-14T10:16:42;15.51;118.99
70867;HTU21D;58487;53.474;49.470;2023-06-14T10:19:24;15.12;118.99
70867;HTU21D;58487;53.474;49.470;2023-06-14T10:22:11;15.08;118.99
70867;HTU21D;58487;53.474;49.470;2023-06-14T10:24:44;15.31;118.99
70867;HTU21D;58487;53.474;49.470;2023-06-14T10:27:13;15.26;118.99
70867;HTU21D;58487;53.474;49.470;2023-06-14T10:32:20;14.99;118.99
70867;HTU21D;58487;53.474;49.470;2023-06-14T10:34:56;15.02;118.99
70867;HTU21D;58487;53.474;49.470;2023-06-14T10:37:23;14.41;118.99
70867;HTU21D;58487;53.474;49.470;2023-06-14T10:39:50;14.82;118.99
70867;HTU21D;58487;53.474;49.470;2023-06-14T10:42:17;15.22;118.99
70867;HTU21D;58487;53.474;49.470;2023-06-14T10:44:56;15.06;118.99
70867;HTU21D;58487;53.474;49.470;2023-06-14T10:47:29;14.40;118.99
70867;HTU21D;58487;53.474;49.470;2023-06-14T10:50:08;14.52;118.99
70867;HTU21D;58487;53.474;49.470;2023-06-14T10:52:41;14.35;118.99
70867;HTU21D;58487;53.474;49.470;2023-06-14T10:55:17;14.69;118.99
70867;HTU21D;58487;53.474;49.470;2023-06-14T10:57:45;14.39;118.99
70867;HTU21D;58487;53.474;49.470;2023-06-14T11:00:13;14.86;118.99
70867;HTU21D;58487;53.474;49.470;2023-06-14T11:05:15;15.41;118.99
70867;HTU21D;58487;53.474;49.470;2023-06-14T11:13:09;15.13;118.99
70867;HTU21D;58487;53.474;49.470;2023-06-14T11:15:36;15.61;118.99
70867;HTU21D;58487;53.474;49.470;2023-06-14T11:18:04;15.70;118.99
70867;HTU21D;58487;53.474;49.470;2023-06-14T11:20:32;16.03;118.99
70867;HTU21D;58487;53.474;49.470;2023-06-14T11:22:59;15.96;118.99
70867;HTU21D;58487;53.474;49.470;2023-06-14T11:25:26;16.27;118.99
70867;HTU21D;58487;53.474;49.470;2023-06-14T11:27:54;16.25;118.99
70867;HTU21D;58487;53.474;49.470;2023-06-14T11:30:21;16.34;118.99
70867;HTU21D;58487;53.474;49.470;2023-06-14T11:32:52;16.07;118.99
70867;HTU21D;58487;53.474;49.470;2023-06-14T11:35:21;16.14;118.99
70867;HTU21D;58487;53.474;49.470;2023-06-14T11:37:53;16.62;118.99
70867;HTU21D;58487;53.474;49.470;2023-06-14T11:40:19;16.04;118.99
70867;HTU21D;58487;53.474;49.470;2023-06-14T11:42:46;16.40;118.99
70867;HTU21D;58487;53.474;49.470;2023-06-14T11:45:12;16.59;118.99
70867;HTU21D;58487;53.474;49.470;2023-06-14T11:47:39;16.54;118.99
70867;HTU21D;58487;53.474;49.470;2023-06-14T11:50:08;16.91;118.99
70867;HTU21D;58487;53.474;49.470;2023-06-14T11:52:35;16.63;118.99
70867;HTU21D;58487;53.474;49.470;2023-06-14T11:55:02;16.81;118.99
70867;HTU21D;58487;53.474;49.470;2023-06-14T11:57:34;16.87;118.99
70867;HTU21D;58487;53.474;49.470;2023-06-14T12:00:07;16.80;118.99
70867;HTU21D;58487;53.474;49.470;2023-06-14T12:02:38;17.52;118.99
70867;HTU21D;58487;53.474;49.470;2023-06-14T12:05:07;17.43;118.99
70867;HTU21D;58487;53.474;49.470;2023-06-14T12:07:37;17.84;118.99
70867;HTU21D;58487;53.474;49.470;2023-06-14T12:10:04;16.86;118.99
70867;HTU21D;58487;53.474;49.470;2023-06-14T12:12:38;17.41;118.99
70867;HTU21D;58487;53.474;49.470;2023-06-14T12:15:06;16.67;118.99
70867;HTU21D;58487;53.474;49.470;2023-06-14T12:17:34;16.54;118.99
70867;HTU21D;58487;53.474;49.470;2023-06-14T12:20:13;16.67;118.99
70867;HTU21D;58487;53.474;49.470;2023-06-14T12:22:53;16.45;118.99
70867;HTU21D;58487;53.474;49.470;2023-06-14T12:25:36;17.04;118.99
70867;HTU21D;58487;53.474;49.470;2023-06-14T12:28:06;16.65;118.99
70867;HTU21D;58487;53.474;49.470;2023-06-14T12:30:33;17.07;118.99
70867;HTU21D;58487;53.474;49.470;2023-06-14T12:33:01;16.77;118.99
70867;HTU21D;58487;53.474;49.470;2023-06-14T12:35:28;17.24;118.99
70867;HTU21D;58487;53.474;49.470;2023-06-14T12:37:54;17.25;118.99
70867;HTU21D;58487;53.474;49.470;2023-06-14T12:40:20;16.96;118.99
70867;HTU21D;58487;53.474;49.470;2023-06-14T12:42:47;16.90;118.99
70867;HTU21D;58487;53.474;49.470;2023-06-14T12:45:13;17.25;118.99
70867;HTU21D;58487;53.474;49.470;2023-06-14T12:47:39;17.67;118.99
70867;HTU21D;58487;53.474;49.470;2023-06-14T12:50:06;16.69;118.99
70867;HTU21D;58487;53.474;49.470;2023-06-14T12:52:33;16.34;118.99
70867;HTU21D;58487;53.474;49.470;2023-06-14T12:55:05;16.19;118.99
70867;HTU21D;58487;53.474;49.470;2023-06-14T12:57:32;16.28;118.99
70867;HTU21D;58487;53.474;49.470;2023-06-14T13:00:00;16.45;118.99
70867;HTU21D;58487;53.474;49.470;2023-06-14T13:02:26;17.82;118.99
70867;HTU21D;58487;53.474;49.470;2023-06-14T13:04:54;18.35;118.99
70867;HTU21D;58487;53.474;49.470;2023-06-14T13:07:21;18.23;118.99
70867;HTU21D;58487;53.474;49.470;2023-06-14T13:09:48;17.80;118.99
70867;HTU21D;58487;53.474;49.470;2023-06-14T13:12:14;17.70;118.99
70867;HTU21D;58487;53.474;49.470;2023-06-14T13:14:40;17.51;118.99
70867;HTU21D;58487;53.474;49.470;2023-06-14T13:17:10;17.21;118.99
70867;HTU21D;58487;53.474;49.470;2023-06-14T13:19:37;17.34;118.99
70867;HTU21D;58487;53.474;49.470;2023-06-14T13:22:03;17.58;118.99
70867;HTU21D;58487;53.474;49.470;2023-06-14T13:24:30;17.77;118.99
70867;HTU21D;58487;53.474;49.470;2023-06-14T13:26:57;17.40;118.99
70867;HTU21D;58487;53.474;49.470;2023-06-14T13:29:24;17.48;118.99
70867;HTU21D;58487;53.474;49.470;2023-06-14T13:31:50;17.97;118.99
70867;HTU21D;58487;53.474;49.470;2023-06-14T13:34:17;17.54;118.99
70867;HTU21D;58487;53.474;49.470;2023-06-14T13:36:43;17.45;118.99
70867;HTU21D;58487;53.474;49.470;2023-06-14T13:39:09;17.98;118.99
70867;HTU21D;58487;53.474;49.470;2023-06-14T13:41:37;17.97;118.99
70867;HTU21D;58487;53.474;49.470;2023-06-14T13:44:04;17.62;118.99
70867;HTU21D;58487;53.474;49.470;2023-06-14T13:46:30;18.00;118.99
70867;HTU21D;58487;53.474;49.470;2023-06-14T13:48:57;17.69;118.99
70867;HTU21D;58487;53.474;49.470;2023-06-14T13:51:27;17.78;118.99
70867;HTU21D;58487;53.474;49.470;2023-06-14T13:53:54;17.90;118.99
70867;HTU21D;58487;53.474;49.470;2023-06-14T13:56:21;17.45;118.99
70867;HTU21D;58487;53.474;49.470;2023-06-14T13:58:50;17.82;118.99
70867;HTU21D;58487;53.474;49.470;2023-06-14T14:01:18;17.55;118.99
70867;HTU21D;58487;53.474;49.470;2023-06-14T14:03:46;16.59;118.99
70867;HTU21D;58487;53.474;49.470;2023-06-14T14:06:13;16.50;118.99
70867;HTU21D;58487;53.474;49.470;2023-06-14T14:08:39;16.17;118.99
70867;HTU21D;58487;53.474;49.470;2023-06-14T14:11:05;16.45;118.99
70867;HTU21D;58487;53.474;49.470;2023-06-14T14:13:32;16.12;118.99
70867;HTU21D;58487;53.474;49.470;2023-06-14T14:15:58;16.62;118.99
70867;HTU21D;58487;53.474;49.470;2023-06-14T14:18:25;16.54;118.99
70867;HTU21D;58487;53.474;49.470;2023-06-14T14:20:51;16.66;118.99
70867;HTU21D;58487;53.474;49.470;2023-06-14T14:23:18;16.74;118.99
70867;HTU21D;58487;53.474;49.470;2023-06-14T14:25:46;17.11;118.99
70867;HTU21D;58487;53.474;49.470;2023-06-14T14:28:14;17.17;118.99
70867;HTU21D;58487;53.474;49.470;2023-06-14T14:30:42;17.56;118.99
70867;HTU21D;58487;53.474;49.470;2023-06-14T14:33:08;17.32;118.99
70867;HTU21D;58487;53.474;49.470;2023-06-14T14:35:34;17.21;118.99
70867;HTU21D;58487;53.474;49.470;2023-06-14T14:38:01;18.04;118.99
70867;HTU21D;58487;53.474;49.470;2023-06-14T14:40:29;18.17;118.99
70867;HTU21D;58487;53.474;49.470;2023-06-14T14:42:55;18.09;118.99
70867;HTU21D;58487;53.474;49.470;2023-06-14T14:45:21;18.12;118.99
70867;HTU21D;58487;53.474;49.470;2023-06-14T14:47:47;17.75;118.99
70867;HTU21D;58487;53.474;49.470;2023-06-14T14:50:14;17.24;118.99
70867;HTU21D;58487;53.474;49.470;2023-06-14T14:52:40;17.63;118.99
70867;HTU21D;58487;53.474;49.470;2023-06-14T14:55:07;17.49;118.99
70867;HTU21D;58487;53.474;49.470;2023-06-14T14:57:33;17.75;118.99
70867;HTU21D;58487;53.474;49.470;2023-06-14T15:00:03;17.22;118.99
70867;HTU21D;58487;53.474;49.470;2023-06-14T15:02:29;17.68;118.99
70867;HTU21D;58487;53.474;49.470;2023-06-14T15:04:56;17.41;118.99